Time;durP1;ratioP1;P1;durP2;ratioP2;P2;SDS_P1;SDS_P2;PMS_P1;PMS_P2;Temp;Humidity;BMP_temperature;BMP_pressure;BME280_temperature;BME280_humidity;BME280_pressure;Samples;Min_cycle;Max_cycle;Signal;HPM_P1;HPM_P2
2023/03/16 00:00:46;;;;;;;14.25;7.82;;;7.80;78.80;;;;;;5002533;28;20040;-78
2023/03/16 00:03:18;;;;;;;15.27;7.72;;;7.80;78.80;;;;;;5021682;28;20021;-78
2023/03/16 00:05:53;;;;;;;10.98;7.07;;;7.80;79.00;;;;;;5020862;28;20057;-78
2023/03/16 00:08:19;;;;;;;11.25;7.13;;;7.80;79.10;;;;;;5020074;28;20784;-78
2023/03/16 00:10:45;;;;;;;14.13;7.53;;;7.70;79.30;;;;;;5020914;28;20025;-78
2023/03/16 00:13:13;;;;;;;10.77;6.60;;;7.80;79.50;;;;;;5003235;28;20029;-78
2023/03/16 00:15:39;;;;;;;12.05;6.45;;;7.80;79.50;;;;;;5020125;28;20040;-77
2023/03/16 00:18:04;;;;;;;13.10;7.47;;;7.80;79.80;;;;;;5018632;28;20021;-78
2023/03/16 00:20:30;;;;;;;14.10;6.88;;;7.70;80.00;;;;;;5019658;28;20108;-78
2023/03/16 00:22:56;;;;;;;12.30;7.22;;;7.70;80.00;;;;;;5019612;28;20141;-77
2023/03/16 00:25:23;;;;;;;12.90;6.93;;;7.70;79.80;;;;;;5015687;28;20033;-78
2023/03/16 00:27:49;;;;;;;15.05;6.78;;;7.70;80.00;;;;;;5018822;28;20038;-78
2023/03/16 00:30:15;;;;;;;12.55;6.88;;;7.70;80.30;;;;;;5019104;28;20024;-78
2023/03/16 00:32:41;;;;;;;11.50;7.20;;;7.70;80.40;;;;;;5004483;28;20053;-78
2023/03/16 00:35:07;;;;;;;14.93;7.22;;;7.60;80.40;;;;;;5024100;28;20404;-78
2023/03/16 00:37:32;;;;;;;12.63;7.25;;;7.60;80.40;;;;;;5020089;28;20112;-78
2023/03/16 00:39:58;;;;;;;10.00;6.82;;;7.60;80.20;;;;;;5027120;28;20061;-77
2023/03/16 00:42:27;;;;;;;13.25;6.47;;;7.60;80.40;;;;;;5013301;28;20044;-78
2023/03/16 00:45:00;;;;;;;12.38;7.03;;;7.60;80.60;;;;;;5002585;28;20489;-78
2023/03/16 00:47:29;;;;;;;13.05;6.55;;;7.60;80.60;;;;;;5020265;28;20095;-78
2023/03/16 00:49:55;;;;;;;12.95;6.43;;;7.60;80.70;;;;;;5021469;28;20100;-77
2023/03/16 00:52:22;;;;;;;11.85;6.38;;;7.60;80.90;;;;;;5021111;28;20026;-78
2023/03/16 00:54:51;;;;;;;11.50;6.38;;;7.60;80.70;;;;;;5013476;28;20025;-77
2023/03/16 00:57:18;;;;;;;12.90;6.53;;;7.60;81.00;;;;;;5016097;28;20107;-78
2023/03/16 00:59:45;;;;;;;13.68;7.20;;;7.60;81.40;;;;;;5016961;28;20027;-78
2023/03/16 01:02:11;;;;;;;14.70;6.88;;;7.60;81.40;;;;;;5020712;28;20041;-78
2023/03/16 01:04:38;;;;;;;14.38;6.50;;;7.50;81.80;;;;;;5021114;28;20715;-76
2023/03/16 01:07:11;;;;;;;13.13;7.43;;;7.50;81.70;;;;;;5020835;28;20030;-77
2023/03/16 01:09:37;;;;;;;11.65;6.57;;;7.50;81.80;;;;;;5020464;28;20030;-79
2023/03/16 01:12:09;;;;;;;13.63;6.30;;;7.50;81.90;;;;;;5019885;28;20095;-78
2023/03/16 01:14:35;;;;;;;11.63;6.47;;;7.50;82.00;;;;;;5021002;28;20673;-77
2023/03/16 01:17:02;;;;;;;12.68;6.82;;;7.50;82.10;;;;;;5022050;28;20512;-77
2023/03/16 01:19:29;;;;;;;10.65;6.82;;;7.50;82.10;;;;;;5020047;28;20564;-77
2023/03/16 01:21:55;;;;;;;14.35;7.13;;;7.50;82.30;;;;;;5021414;28;20076;-79
2023/03/16 01:24:20;;;;;;;11.90;6.70;;;7.40;82.30;;;;;;5020258;28;20057;-79
2023/03/16 01:26:46;;;;;;;12.57;6.68;;;7.40;82.60;;;;;;5021256;28;20156;-79
2023/03/16 01:29:12;;;;;;;12.13;7.40;;;7.40;82.70;;;;;;5021186;28;20028;-78
2023/03/16 01:31:38;;;;;;;12.75;7.45;;;7.50;82.90;;;;;;5024104;28;20494;-78
2023/03/16 01:34:03;;;;;;;13.57;7.38;;;7.40;83.10;;;;;;5021447;28;20040;-78
2023/03/16 01:36:30;;;;;;;13.27;6.90;;;7.40;83.00;;;;;;5023932;28;20040;-79
2023/03/16 01:38:57;;;;;;;14.32;8.68;;;7.30;83.30;;;;;;5024979;28;20037;-78
2023/03/16 01:41:24;;;;;;;15.23;7.60;;;7.30;83.60;;;;;;5011613;28;20527;-78
2023/03/16 01:43:50;;;;;;;16.27;8.05;;;7.30;83.50;;;;;;5024664;28;20162;-78
2023/03/16 01:46:24;;;;;;;14.43;7.57;;;7.30;83.70;;;;;;5020434;28;20104;-76
2023/03/16 01:49:04;;;;;;;13.13;7.22;;;7.30;83.80;;;;;;5021877;28;20785;-77
2023/03/16 01:51:43;;;;;;;13.80;7.55;;;7.30;83.90;;;;;;5021971;28;20656;-77
2023/03/16 01:54:13;;;;;;;13.45;7.65;;;7.20;84.00;;;;;;5023702;28;20022;-77
2023/03/16 01:57:07;;;;;;;10.80;6.63;;;7.20;84.20;;;;;;5015854;28;20042;-76
2023/03/16 01:59:47;;;;;;;15.63;7.35;;;7.30;84.20;;;;;;5023492;28;20036;-78
2023/03/16 02:02:17;;;;;;;11.70;7.10;;;7.20;84.30;;;;;;5022354;28;20040;-78
2023/03/16 02:04:47;;;;;;;12.35;6.75;;;7.20;84.20;;;;;;5030999;28;20044;-78
2023/03/16 02:07:15;;;;;;;14.75;7.57;;;7.30;84.20;;;;;;5022265;28;20498;-78
2023/03/16 02:09:48;;;;;;;13.40;6.78;;;7.30;84.10;;;;;;5018922;28;20529;-78
2023/03/16 02:12:19;;;;;;;10.70;6.93;;;7.20;84.20;;;;;;5026041;28;20042;-78
2023/03/16 02:14:49;;;;;;;12.73;6.90;;;7.30;84.10;;;;;;5024846;28;20028;-77
2023/03/16 02:17:19;;;;;;;12.63;6.50;;;7.20;84.10;;;;;;5021801;28;20489;-78
2023/03/16 02:19:48;;;;;;;12.13;6.65;;;7.20;84.40;;;;;;5029257;28;20481;-79
2023/03/16 02:22:15;;;;;;;11.60;6.78;;;7.20;84.30;;;;;;5018693;28;20157;-78
2023/03/16 02:24:41;;;;;;;14.82;7.43;;;7.20;84.20;;;;;;5022666;28;20193;-77
2023/03/16 02:27:12;;;;;;;12.77;6.47;;;7.20;84.10;;;;;;5017645;28;20034;-77
2023/03/16 02:30:14;;;;;;;12.02;6.28;;;7.20;84.20;;;;;;4997981;28;20029;-77
2023/03/16 02:32:41;;;;;;;12.05;6.15;;;7.10;83.80;;;;;;4998842;28;20095;-77
2023/03/16 02:35:09;;;;;;;12.02;6.00;;;7.10;83.90;;;;;;5006693;28;20033;-77
2023/03/16 02:37:35;;;;;;;9.80;5.65;;;7.10;83.80;;;;;;5022298;28;20362;-77
2023/03/16 02:40:15;;;;;;;9.88;5.55;;;7.20;83.70;;;;;;5020449;28;20033;-78
2023/03/16 02:42:41;;;;;;;12.50;5.80;;;7.10;83.70;;;;;;5021515;28;20045;-78
2023/03/16 02:45:08;;;;;;;11.50;5.60;;;7.20;83.40;;;;;;5027940;28;20037;-77
2023/03/16 02:47:42;;;;;;;9.57;5.03;;;7.10;83.20;;;;;;5025488;28;20057;-77
2023/03/16 02:50:11;;;;;;;13.63;5.43;;;7.20;83.00;;;;;;5025312;28;20026;-78
2023/03/16 02:52:38;;;;;;;11.40;5.90;;;7.20;83.00;;;;;;5020707;28;20649;-77
2023/03/16 02:55:07;;;;;;;10.02;5.10;;;7.20;82.90;;;;;;5023224;28;20500;-79
2023/03/16 02:57:33;;;;;;;12.88;5.10;;;7.20;82.80;;;;;;5021150;28;20084;-79
2023/03/16 03:00:00;;;;;;;11.45;5.20;;;7.20;82.80;;;;;;5005351;28;20037;-78
2023/03/16 03:02:26;;;;;;;9.57;5.13;;;7.20;82.70;;;;;;5023278;28;20096;-78
2023/03/16 03:04:53;;;;;;;10.75;4.75;;;7.20;82.50;;;;;;5008435;28;20489;-79
2023/03/16 03:07:19;;;;;;;10.65;4.82;;;7.20;82.60;;;;;;5020535;28;20103;-78
2023/03/16 03:09:45;;;;;;;9.10;4.80;;;7.20;82.50;;;;;;5021817;28;20025;-78
2023/03/16 03:12:11;;;;;;;13.95;5.50;;;7.20;82.50;;;;;;5022118;28;20397;-78
2023/03/16 03:14:38;;;;;;;9.05;4.90;;;7.20;82.30;;;;;;5021136;28;20021;-78
2023/03/16 03:17:08;;;;;;;14.15;5.38;;;7.20;82.10;;;;;;5034246;28;20044;-78
2023/03/16 03:19:35;;;;;;;10.45;4.38;;;7.10;82.20;;;;;;5029872;28;20115;-78
2023/03/16 03:22:03;;;;;;;9.93;4.95;;;7.20;82.00;;;;;;5018345;28;20120;-78
2023/03/16 03:24:30;;;;;;;10.95;5.13;;;7.20;81.70;;;;;;5025532;28;20060;-77
2023/03/16 03:26:57;;;;;;;9.02;4.95;;;7.10;81.30;;;;;;5023048;28;20057;-78
2023/03/16 03:29:23;;;;;;;10.55;5.50;;;7.20;80.80;;;;;;5022812;28;20025;-78
2023/03/16 03:31:49;;;;;;;12.13;5.75;;;7.20;80.90;;;;;;5023860;28;20550;-78
2023/03/16 03:34:14;;;;;;;10.10;4.82;;;7.20;80.40;;;;;;5025632;28;20424;-78
2023/03/16 03:36:40;;;;;;;10.98;4.68;;;7.20;80.20;;;;;;5024513;28;20659;-77
2023/03/16 03:39:06;;;;;;;14.27;4.85;;;7.30;80.20;;;;;;5024886;28;20036;-78
2023/03/16 03:41:32;;;;;;;10.07;4.90;;;7.20;80.10;;;;;;5020344;28;20037;-78
2023/03/16 03:43:59;;;;;;;11.73;5.43;;;7.20;80.20;;;;;;5025029;28;20481;-78
2023/03/16 03:46:25;;;;;;;10.02;5.20;;;7.30;80.00;;;;;;5009230;28;20077;-78
2023/03/16 03:48:51;;;;;;;12.10;4.32;;;7.30;80.20;;;;;;5029528;28;20044;-78
2023/03/16 03:51:16;;;;;;;9.65;4.90;;;7.20;80.00;;;;;;5024766;28;20626;-77
2023/03/16 03:53:42;;;;;;;9.85;5.18;;;7.20;80.20;;;;;;5022563;28;20384;-78
2023/03/16 03:56:08;;;;;;;12.95;5.50;;;7.20;80.20;;;;;;5018410;28;20030;-77
2023/03/16 03:58:33;;;;;;;12.23;5.32;;;7.20;80.10;;;;;;5018012;28;20032;-77
2023/03/16 04:00:59;;;;;;;14.45;5.88;;;7.20;80.10;;;;;;5021201;28;20037;-77
2023/03/16 04:03:25;;;;;;;10.60;5.53;;;7.20;80.00;;;;;;5022845;28;20035;-78
2023/03/16 04:05:51;;;;;;;12.05;5.40;;;7.20;79.50;;;;;;5021562;28;20813;-77
2023/03/16 04:08:17;;;;;;;9.20;5.00;;;7.20;79.70;;;;;;5019277;28;20041;-77
2023/03/16 04:10:43;;;;;;;9.80;4.75;;;7.30;79.80;;;;;;5034539;28;20053;-76
2023/03/16 04:13:09;;;;;;;11.18;5.13;;;7.30;79.60;;;;;;5021325;28;20048;-79
2023/03/16 04:15:37;;;;;;;9.98;4.88;;;7.20;79.50;;;;;;5023239;28;20049;-78
2023/03/16 04:18:03;;;;;;;12.00;5.20;;;7.20;79.50;;;;;;5026240;28;20031;-78
2023/03/16 04:20:28;;;;;;;12.90;5.93;;;7.20;79.20;;;;;;5016414;28;20033;-78
2023/03/16 04:22:57;;;;;;;10.40;5.18;;;7.20;79.10;;;;;;5022047;28;20049;-78
2023/03/16 04:25:25;;;;;;;10.43;5.80;;;7.20;78.90;;;;;;5019750;28;20080;-78
2023/03/16 04:27:51;;;;;;;10.13;4.97;;;7.20;78.40;;;;;;5001141;28;20379;-78
2023/03/16 04:30:17;;;;;;;13.13;5.10;;;7.20;78.30;;;;;;5021207;28;20026;-78
2023/03/16 04:32:43;;;;;;;10.77;5.18;;;7.20;78.20;;;;;;5021209;28;20145;-78
2023/03/16 04:35:09;;;;;;;10.93;4.88;;;7.20;78.10;;;;;;5020492;28;20462;-78
2023/03/16 04:37:35;;;;;;;12.85;4.93;;;7.20;78.10;;;;;;5032343;28;20036;-79
2023/03/16 04:40:09;;;;;;;9.73;4.43;;;7.20;77.90;;;;;;5019376;28;20072;-78
2023/03/16 04:42:35;;;;;;;12.05;4.85;;;7.20;77.50;;;;;;5018590;28;20112;-78
2023/03/16 04:45:01;;;;;;;11.82;4.53;;;7.20;77.10;;;;;;5019926;28;20036;-78
2023/03/16 04:47:27;;;;;;;8.45;4.30;;;7.20;77.20;;;;;;5029045;28;20053;-78
2023/03/16 04:49:52;;;;;;;9.77;4.50;;;7.20;76.80;;;;;;5019488;28;20033;-78
2023/03/16 04:52:18;;;;;;;10.48;4.25;;;7.20;77.00;;;;;;5019966;28;20037;-78
2023/03/16 04:54:44;;;;;;;9.50;4.57;;;7.20;77.10;;;;;;5023524;28;20026;-78
2023/03/16 04:57:10;;;;;;;8.07;4.60;;;7.20;76.80;;;;;;5030754;28;20044;-78
2023/03/16 04:59:35;;;;;;;10.27;4.72;;;7.20;76.70;;;;;;5014499;28;20068;-79
2023/03/16 05:02:01;;;;;;;8.88;4.60;;;7.20;76.30;;;;;;5019874;28;20040;-78
2023/03/16 05:04:27;;;;;;;13.90;4.93;;;7.30;76.30;;;;;;5022295;28;20033;-77
2023/03/16 05:06:53;;;;;;;11.57;5.10;;;7.20;76.00;;;;;;5027039;28;20033;-77
2023/03/16 05:09:19;;;;;;;7.32;4.03;;;7.20;75.90;;;;;;5023969;28;20022;-78
2023/03/16 05:11:45;;;;;;;9.52;4.60;;;7.30;75.90;;;;;;5022988;28;20030;-77
2023/03/16 05:14:10;;;;;;;7.82;3.90;;;7.30;75.50;;;;;;5025874;28;20077;-78
2023/03/16 05:16:36;;;;;;;9.07;3.92;;;7.30;75.60;;;;;;5027831;28;20684;-77
2023/03/16 05:19:03;;;;;;;10.77;5.18;;;7.30;75.30;;;;;;5023649;28;20484;-77
2023/03/16 05:21:30;;;;;;;8.75;3.70;;;7.30;75.70;;;;;;5025174;28;20059;-78
2023/03/16 05:23:56;;;;;;;10.00;4.25;;;7.30;75.20;;;;;;5031701;28;20385;-78
2023/03/16 05:26:24;;;;;;;9.73;4.72;;;7.30;75.10;;;;;;5027050;28;20029;-78
2023/03/16 05:28:50;;;;;;;10.93;4.53;;;7.30;75.10;;;;;;5037605;28;20045;-78
2023/03/16 05:31:17;;;;;;;10.20;4.22;;;7.30;74.90;;;;;;5023724;28;20496;-78
2023/03/16 05:33:43;;;;;;;11.52;4.18;;;7.20;74.50;;;;;;5016644;28;20033;-77
2023/03/16 05:36:09;;;;;;;8.50;3.85;;;7.30;74.30;;;;;;5024399;28;20042;-78
2023/03/16 05:38:35;;;;;;;8.48;3.47;;;7.30;73.90;;;;;;5024511;28;20065;-78
2023/03/16 05:41:03;;;;;;;11.13;3.78;;;7.20;74.00;;;;;;5024016;28;20644;-78
2023/03/16 05:43:29;;;;;;;9.85;3.60;;;7.20;73.80;;;;;;5031402;28;20416;-78
2023/03/16 05:45:56;;;;;;;11.77;4.00;;;7.20;73.80;;;;;;5021328;28;20029;-77
2023/03/16 05:48:24;;;;;;;8.70;3.72;;;7.20;73.90;;;;;;5029606;28;20025;-77
2023/03/16 05:50:51;;;;;;;8.95;4.00;;;7.20;74.00;;;;;;5006937;28;20431;-78
2023/03/16 05:53:16;;;;;;;8.40;3.90;;;7.10;73.60;;;;;;5028081;28;20017;-77
2023/03/16 05:55:42;;;;;;;10.57;3.35;;;7.10;73.50;;;;;;5027512;28;20497;-79
2023/03/16 05:58:08;;;;;;;7.95;3.80;;;7.20;73.40;;;;;;5022983;28;20029;-78
2023/03/16 06:00:33;;;;;;;7.93;3.70;;;7.10;73.60;;;;;;5023249;28;20120;-79
2023/03/16 06:03:00;;;;;;;11.63;3.50;;;7.10;73.60;;;;;;5019749;28;20116;-77
2023/03/16 06:05:27;;;;;;;7.47;3.47;;;7.10;73.30;;;;;;5025655;28;20155;-78
2023/03/16 06:07:53;;;;;;;10.57;3.65;;;7.10;73.30;;;;;;5018245;28;20052;-78
2023/03/16 06:10:20;;;;;;;8.60;3.60;;;7.20;72.60;;;;;;5025614;28;20038;-79
2023/03/16 06:12:46;;;;;;;8.80;3.97;;;7.10;72.70;;;;;;5021627;28;20076;-78
2023/03/16 06:15:12;;;;;;;11.55;3.22;;;7.20;72.70;;;;;;5025192;28;20041;-78
2023/03/16 06:17:39;;;;;;;7.55;3.97;;;7.20;72.60;;;;;;5024846;28;20029;-77
2023/03/16 06:20:12;;;;;;;8.27;3.25;;;7.20;72.50;;;;;;5042539;28;20025;-77
2023/03/16 06:22:40;;;;;;;7.25;3.50;;;7.20;72.40;;;;;;5007189;28;20293;-79
2023/03/16 06:25:06;;;;;;;10.05;3.30;;;7.30;72.20;;;;;;5024469;28;20092;-77
2023/03/16 06:27:32;;;;;;;9.65;3.30;;;7.30;71.80;;;;;;5020822;28;20103;-79
2023/03/16 06:29:58;;;;;;;8.02;3.08;;;7.30;71.60;;;;;;5022383;28;20452;-79
2023/03/16 06:32:24;;;;;;;8.23;3.03;;;7.30;71.90;;;;;;5007552;28;20053;-78
2023/03/16 06:34:50;;;;;;;8.60;3.45;;;7.40;71.00;;;;;;5028978;28;20033;-79
2023/03/16 06:37:16;;;;;;;9.18;3.35;;;7.40;71.20;;;;;;5032523;28;20029;-78
2023/03/16 06:39:43;;;;;;;6.38;3.00;;;7.40;70.90;;;;;;5022745;28;20473;-79
2023/03/16 06:42:09;;;;;;;8.10;3.08;;;7.50;70.50;;;;;;5022853;28;20409;-78
2023/03/16 06:44:36;;;;;;;10.18;3.65;;;7.60;69.80;;;;;;5021920;28;20056;-79
2023/03/16 06:47:02;;;;;;;7.88;2.90;;;7.70;69.20;;;;;;5005035;28;20522;-79
2023/03/16 06:49:29;;;;;;;9.32;3.10;;;8.10;68.80;;;;;;5023185;28;20032;-78
2023/03/16 06:51:57;;;;;;;8.05;3.33;;;8.30;67.40;;;;;;5017291;28;20036;-78
2023/03/16 06:54:23;;;;;;;8.27;3.13;;;8.60;66.50;;;;;;5006660;28;20033;-79
2023/03/16 06:56:49;;;;;;;6.00;2.92;;;8.60;65.80;;;;;;5019304;28;20042;-79
2023/03/16 06:59:14;;;;;;;8.05;2.78;;;8.50;65.40;;;;;;5020114;28;20083;-79
2023/03/16 07:01:41;;;;;;;6.15;2.80;;;8.50;65.40;;;;;;5020809;28;20344;-75
2023/03/16 07:04:07;;;;;;;7.75;3.38;;;8.60;65.40;;;;;;5015076;28;20099;-76
2023/03/16 07:06:33;;;;;;;10.10;3.10;;;8.60;64.80;;;;;;5019337;28;20855;-76
2023/03/16 07:09:00;;;;;;;8.38;3.05;;;8.60;64.90;;;;;;5022675;28;20030;-76
2023/03/16 07:11:26;;;;;;;8.88;2.72;;;8.60;64.70;;;;;;5027303;28;20407;-76
2023/03/16 07:13:51;;;;;;;8.98;2.90;;;8.70;64.90;;;;;;5022570;28;20029;-75
2023/03/16 07:16:17;;;;;;;9.30;3.25;;;8.80;65.10;;;;;;5017364;28;20104;-76
2023/03/16 07:18:43;;;;;;;13.02;3.38;;;8.90;64.60;;;;;;5017479;28;20294;-76
2023/03/16 07:21:09;;;;;;;6.38;2.90;;;8.90;64.20;;;;;;5019021;28;20094;-76
2023/03/16 07:23:35;;;;;;;8.43;2.75;;;9.00;63.80;;;;;;5003049;28;20029;-76
2023/03/16 07:26:01;;;;;;;6.38;2.80;;;8.90;63.60;;;;;;5019179;28;20037;-77
2023/03/16 07:28:26;;;;;;;6.47;2.72;;;9.00;64.20;;;;;;5016739;28;20029;-77
2023/03/16 07:30:52;;;;;;;8.43;2.67;;;9.00;63.90;;;;;;5018135;28;20041;-77
2023/03/16 07:33:19;;;;;;;6.43;2.90;;;9.10;63.50;;;;;;5020096;28;20029;-76
2023/03/16 07:35:45;;;;;;;7.32;2.78;;;9.10;63.50;;;;;;5019691;28;20666;-77
2023/03/16 07:38:11;;;;;;;11.25;3.60;;;9.10;63.70;;;;;;5021205;28;20053;-76
2023/03/16 07:40:39;;;;;;;7.57;2.95;;;9.10;63.60;;;;;;5023427;28;20166;-76
2023/03/16 07:43:05;;;;;;;8.25;3.08;;;9.10;63.10;;;;;;5003497;28;20025;-77
2023/03/16 07:45:31;;;;;;;8.00;2.88;;;9.00;63.60;;;;;;5020077;28;20108;-76
2023/03/16 07:47:56;;;;;;;8.68;3.25;;;9.10;64.10;;;;;;5017005;28;20129;-76
2023/03/16 07:50:22;;;;;;;7.57;2.67;;;9.10;63.70;;;;;;5018143;28;20095;-77
2023/03/16 07:52:48;;;;;;;6.63;2.58;;;9.20;63.20;;;;;;5020218;28;20132;-74
2023/03/16 07:55:14;;;;;;;7.28;2.80;;;9.20;63.50;;;;;;5024166;28;20035;-74
2023/03/16 07:57:41;;;;;;;10.05;2.92;;;9.20;63.50;;;;;;5022136;28;20037;-76
2023/03/16 08:00:08;;;;;;;6.95;3.20;;;9.40;62.80;;;;;;5021554;28;20028;-74
2023/03/16 08:02:33;;;;;;;6.55;2.72;;;9.40;63.00;;;;;;5004175;28;20033;-75
2023/03/16 08:04:59;;;;;;;8.13;3.15;;;9.50;62.70;;;;;;5018010;28;20102;-74
2023/03/16 08:07:26;;;;;;;8.80;2.63;;;9.60;62.10;;;;;;5027915;28;20037;-75
2023/03/16 08:09:52;;;;;;;5.80;3.05;;;9.70;61.90;;;;;;5017199;28;20028;-75
2023/03/16 08:12:18;;;;;;;9.57;3.03;;;9.70;60.80;;;;;;5025020;28;20037;-78
2023/03/16 08:14:44;;;;;;;8.93;3.13;;;9.80;60.50;;;;;;5021934;28;20220;-76
2023/03/16 08:17:11;;;;;;;6.57;3.13;;;9.80;60.90;;;;;;5023717;28;20048;-77
2023/03/16 08:19:37;;;;;;;9.30;3.25;;;9.90;60.60;;;;;;5026170;28;20025;-76
2023/03/16 08:22:04;;;;;;;6.60;2.90;;;9.80;60.30;;;;;;5024176;28;20033;-75
2023/03/16 08:24:31;;;;;;;7.80;2.90;;;9.80;59.80;;;;;;5022777;28;20037;-74
2023/03/16 08:26:58;;;;;;;7.80;2.55;;;9.80;59.80;;;;;;5023736;28;20034;-76
2023/03/16 08:29:25;;;;;;;9.15;2.80;;;9.80;59.50;;;;;;5018339;28;20823;-76
2023/03/16 08:31:55;;;;;;;8.48;2.88;;;10.10;60.10;;;;;;5022251;28;20041;-76
2023/03/16 08:34:22;;;;;;;6.97;2.50;;;10.10;59.80;;;;;;5022195;28;20033;-76
2023/03/16 08:36:47;;;;;;;5.75;2.45;;;10.20;59.60;;;;;;5021709;28;20037;-76
2023/03/16 08:39:14;;;;;;;8.65;2.90;;;10.20;59.20;;;;;;5024128;28;20492;-75
2023/03/16 08:41:41;;;;;;;8.57;3.13;;;10.20;59.00;;;;;;5029735;28;20569;-74
2023/03/16 08:44:08;;;;;;;6.43;2.67;;;10.20;58.70;;;;;;5027821;28;20819;-77
2023/03/16 08:46:34;;;;;;;5.90;2.63;;;10.30;58.50;;;;;;5023500;28;20435;-77
2023/03/16 08:49:00;;;;;;;9.18;2.75;;;10.30;58.50;;;;;;5024081;28;20032;-75
2023/03/16 08:51:26;;;;;;;7.35;3.05;;;10.40;58.80;;;;;;5029659;28;20037;-76
2023/03/16 08:53:52;;;;;;;7.25;2.83;;;10.40;58.50;;;;;;5014107;28;20064;-75
2023/03/16 08:56:18;;;;;;;7.18;3.08;;;10.30;58.30;;;;;;5026291;28;20026;-74
2023/03/16 08:58:44;;;;;;;6.40;2.70;;;10.30;58.40;;;;;;5023481;28;20032;-75
2023/03/16 09:01:12;;;;;;;6.95;2.65;;;10.40;58.90;;;;;;5024124;28;20041;-75
2023/03/16 09:03:39;;;;;;;7.63;2.60;;;10.50;59.00;;;;;;5011722;28;20382;-75
2023/03/16 09:06:08;;;;;;;8.52;2.80;;;10.50;57.90;;;;;;5023912;28;20029;-75
2023/03/16 09:08:35;;;;;;;8.68;2.97;;;10.50;58.20;;;;;;5025008;28;20017;-75
2023/03/16 09:11:02;;;;;;;6.88;3.15;;;10.60;58.50;;;;;;5028199;28;20063;-75
2023/03/16 09:13:29;;;;;;;8.73;3.20;;;10.80;58.40;;;;;;5026866;28;20035;-75
2023/03/16 09:15:55;;;;;;;6.18;2.58;;;10.90;58.60;;;;;;5037402;28;20850;-76
2023/03/16 09:18:22;;;;;;;7.00;2.45;;;10.90;56.70;;;;;;5022829;28;20052;-75
2023/03/16 09:20:48;;;;;;;6.30;2.33;;;10.80;57.40;;;;;;5022680;28;20455;-77
2023/03/16 09:23:14;;;;;;;7.60;2.60;;;10.90;57.10;;;;;;5038302;28;20385;-75
2023/03/16 09:25:40;;;;;;;6.72;2.83;;;10.90;57.00;;;;;;5028584;28;20090;-75
2023/03/16 09:28:07;;;;;;;5.63;2.17;;;11.00;56.20;;;;;;5023201;28;20397;-79
2023/03/16 09:30:33;;;;;;;6.03;2.38;;;11.10;56.30;;;;;;5023643;28;20371;-75
2023/03/16 09:32:59;;;;;;;6.93;2.38;;;11.10;56.60;;;;;;5028892;28;20116;-76
2023/03/16 09:35:25;;;;;;;6.82;3.05;;;11.30;56.50;;;;;;5023341;28;20025;-78
2023/03/16 09:37:51;;;;;;;5.47;2.40;;;11.30;56.00;;;;;;5046885;28;20503;-77
2023/03/16 09:40:29;;;;;;;7.90;3.10;;;11.50;56.20;;;;;;5023618;28;20251;-80
2023/03/16 09:43:35;;;;;;;7.18;2.80;;;11.60;56.00;;;;;;5026617;28;20033;-78
2023/03/16 09:46:10;;;;;;;6.50;2.55;;;11.80;55.40;;;;;;5023273;28;20045;-77
2023/03/16 09:48:38;;;;;;;6.63;2.53;;;12.10;54.70;;;;;;5024544;28;20032;-78
2023/03/16 09:51:07;;;;;;;5.93;2.58;;;12.10;55.20;;;;;;5019503;28;20033;-75
2023/03/16 09:53:36;;;;;;;7.30;2.60;;;12.40;54.60;;;;;;5024183;28;20093;-75
2023/03/16 09:56:11;;;;;;;6.38;2.38;;;12.60;53.30;;;;;;5011649;28;20103;-76
2023/03/16 09:58:37;;;;;;;9.68;2.67;;;12.90;52.90;;;;;;5018990;28;20026;-75
2023/03/16 10:01:55;;;;;;;6.03;2.20;;;13.00;53.10;;;;;;5024296;28;20041;-74
2023/03/16 10:04:54;;;;;;;4.90;2.30;;;13.30;52.70;;;;;;4988563;28;20041;-75
2023/03/16 10:07:23;;;;;;;8.88;2.63;;;13.60;51.40;;;;;;5020386;28;20326;-77
2023/03/16 10:10:01;;;;;;;9.25;2.72;;;13.80;51.80;;;;;;5009597;28;20033;-77
2023/03/16 10:12:36;;;;;;;6.57;2.40;;;13.80;50.10;;;;;;5023267;28;20049;-74
2023/03/16 10:15:11;;;;;;;5.65;2.22;;;13.50;49.90;;;;;;5021168;28;20037;-76
2023/03/16 10:17:50;;;;;;;6.32;2.42;;;13.60;50.60;;;;;;5024509;28;20052;-76
2023/03/16 10:20:21;;;;;;;6.63;2.78;;;13.70;50.40;;;;;;5024231;28;20033;-76
2023/03/16 10:22:51;;;;;;;5.75;2.45;;;13.80;51.20;;;;;;5024087;28;20393;-76
2023/03/16 10:25:43;;;;;;;4.88;2.25;;;13.60;49.90;;;;;;5015551;28;20041;-76
2023/03/16 10:28:16;;;;;;;8.75;2.70;;;13.60;50.90;;;;;;5020665;28;20172;-75
2023/03/16 10:30:42;;;;;;;11.80;2.42;;;13.60;50.30;;;;;;5005037;28;20096;-78
2023/03/16 10:33:17;;;;;;;6.35;2.70;;;13.50;50.10;;;;;;5020918;28;20116;-76
2023/03/16 10:35:47;;;;;;;8.43;2.70;;;13.50;51.20;;;;;;5020699;28;20140;-74
2023/03/16 10:38:47;;;;;;;6.15;2.30;;;13.50;51.10;;;;;;5007142;28;20477;-75
2023/03/16 10:41:28;;;;;;;4.82;2.35;;;13.50;50.60;;;;;;5013616;28;20095;-75
2023/03/16 10:43:57;;;;;;;5.90;2.38;;;13.50;50.00;;;;;;5025992;28;20420;-76
2023/03/16 10:46:27;;;;;;;6.20;2.40;;;13.50;49.90;;;;;;5018667;28;20049;-76
2023/03/16 10:49:00;;;;;;;7.05;2.20;;;13.50;50.20;;;;;;5029169;28;20469;-77
2023/03/16 10:51:35;;;;;;;5.30;2.42;;;13.50;50.90;;;;;;5008281;28;21165;-76
2023/03/16 10:54:29;;;;;;;7.13;2.45;;;13.60;50.00;;;;;;5025726;28;20325;-74
2023/03/16 10:56:56;;;;;;;7.63;2.40;;;13.60;51.20;;;;;;5036375;28;20159;-75
2023/03/16 10:59:32;;;;;;;6.78;3.13;;;13.70;51.10;;;;;;5029255;28;20353;-74
2023/03/16 11:02:01;;;;;;;8.02;2.90;;;13.70;50.80;;;;;;5024557;28;20339;-75
2023/03/16 11:04:31;;;;;;;8.05;2.60;;;13.60;51.00;;;;;;5024342;28;20030;-74
2023/03/16 11:06:58;;;;;;;8.15;2.70;;;13.60;51.80;;;;;;5031397;28;20134;-75
2023/03/16 11:09:33;;;;;;;6.57;2.50;;;13.70;51.30;;;;;;5033488;28;20037;-74
2023/03/16 11:12:11;;;;;;;10.35;2.88;;;13.90;51.20;;;;;;5028570;28;20044;-80
2023/03/16 11:14:42;;;;;;;7.57;2.60;;;14.00;50.90;;;;;;5005463;28;20458;-80
2023/03/16 11:17:20;;;;;;;7.90;2.78;;;14.30;50.50;;;;;;5017008;28;20033;-75
2023/03/16 11:19:55;;;;;;;6.20;2.78;;;14.20;49.60;;;;;;5017157;28;20133;-74
2023/03/16 11:22:24;;;;;;;6.95;2.55;;;14.10;49.90;;;;;;5015762;28;20044;-75
2023/03/16 11:25:03;;;;;;;5.38;2.30;;;14.30;49.50;;;;;;5018429;28;20124;-74
2023/03/16 11:27:47;;;;;;;7.40;2.38;;;14.20;49.40;;;;;;5017373;28;20069;-75
2023/03/16 11:30:20;;;;;;;6.55;2.40;;;14.10;50.10;;;;;;5005194;28;20422;-75
2023/03/16 11:32:49;;;;;;;7.47;2.60;;;14.20;49.70;;;;;;5028746;28;20067;-75
2023/03/16 11:35:20;;;;;;;6.32;2.33;;;14.40;49.30;;;;;;5019195;28;20330;-74
2023/03/16 11:38:04;;;;;;;10.40;2.70;;;14.50;50.70;;;;;;5017975;28;20041;-75
2023/03/16 11:40:52;;;;;;;6.63;2.42;;;14.90;50.20;;;;;;5015983;28;20029;-75
2023/03/16 11:43:30;;;;;;;8.73;2.80;;;15.00;49.40;;;;;;4995737;28;20164;-75
2023/03/16 11:46:20;;;;;;;7.30;2.30;;;15.10;49.40;;;;;;5013067;28;20703;-76
2023/03/16 11:49:07;;;;;;;8.15;2.47;;;15.20;48.60;;;;;;5018423;28;20021;-74
2023/03/16 11:51:38;;;;;;;8.23;2.50;;;15.40;49.10;;;;;;5016887;28;20029;-74
2023/03/16 11:54:30;;;;;;;6.80;2.17;;;15.10;47.40;;;;;;5019689;28;20041;-75
2023/03/16 11:57:04;;;;;;;6.00;2.22;;;15.00;47.80;;;;;;5011156;28;20047;-76
2023/03/16 11:59:42;;;;;;;11.10;2.72;;;14.90;48.60;;;;;;5031920;28;20028;-76
2023/03/16 12:02:08;;;;;;;8.45;2.83;;;15.00;48.20;;;;;;5025959;28;20159;-76
2023/03/16 12:04:54;;;;;;;7.40;2.20;;;15.00;48.50;;;;;;5033984;28;20120;-77
2023/03/16 12:07:22;;;;;;;7.95;2.95;;;15.10;48.80;;;;;;5022407;28;20053;-75
2023/03/16 12:10:22;;;;;;;7.05;2.65;;;14.90;48.90;;;;;;5022349;28;20296;-76
2023/03/16 12:12:53;;;;;;;9.52;2.35;;;14.60;49.40;;;;;;5017925;28;20076;-78
2023/03/16 12:15:43;;;;;;;5.40;2.47;;;14.60;49.00;;;;;;5020344;28;20032;-74
2023/03/16 12:18:25;;;;;;;5.85;2.45;;;15.00;49.90;;;;;;5021729;28;20072;-76
2023/03/16 12:20:59;;;;;;;7.13;2.70;;;15.10;48.30;;;;;;5014541;28;20037;-74
2023/03/16 12:23:30;;;;;;;;;;;15.30;48.50;;;;;;5021813;28;20166;-78
2023/03/16 12:26:02;;;;;;;6.78;2.70;;;15.40;48.50;;;;;;5016830;28;19924;-79
2023/03/16 12:28:29;;;;;;;7.85;2.78;;;15.30;47.80;;;;;;5020634;28;20121;-78
2023/03/16 12:31:09;;;;;;;8.80;2.92;;;15.10;47.80;;;;;;5017372;28;20084;-76
2023/03/16 12:33:46;;;;;;;9.50;2.90;;;15.10;48.10;;;;;;5029384;28;20037;-75
2023/03/16 12:36:15;;;;;;;9.30;2.97;;;15.00;48.20;;;;;;5020758;28;20041;-77
2023/03/16 12:38:52;;;;;;;9.60;3.47;;;15.20;48.00;;;;;;5022773;28;20030;-76
2023/03/16 12:41:45;;;;;;;10.38;2.88;;;15.20;48.50;;;;;;5024296;28;20048;-77
2023/03/16 12:44:19;;;;;;;8.77;2.80;;;15.40;47.80;;;;;;5019125;28;20037;-74
2023/03/16 12:47:14;;;;;;;;;;;15.40;47.90;;;;;;5025543;28;20542;-76
2023/03/16 12:49:41;;;;;;;10.70;2.97;;;15.50;48.10;;;;;;5007286;28;19994;-76
2023/03/16 12:52:11;;;;;;;7.93;2.90;;;15.70;48.30;;;;;;5020426;28;20382;-73
2023/03/16 12:54:52;;;;;;;7.88;3.08;;;15.40;46.50;;;;;;5005808;28;20033;-74
2023/03/16 12:57:19;;;;;;;7.93;2.95;;;15.30;47.50;;;;;;5018369;28;20030;-73
2023/03/16 12:59:49;;;;;;;7.43;2.53;;;15.50;46.80;;;;;;5022218;28;20037;-75
2023/03/16 13:02:27;;;;;;;7.43;2.90;;;15.40;47.70;;;;;;5016587;28;20088;-74